Time;durP1;ratioP1;P1;durP2;ratioP2;P2;SDS_P1;SDS_P2;PMS_P1;PMS_P2;Temp;Humidity;BMP_temperature;BMP_pressure;BME280_temperature;BME280_humidity;BME280_pressure;Samples;Min_cycle;Max_cycle;Signal;HPM_P1;HPM_P2
2024/01/06 00:00:37;;;;;;;5;3.8;;;;;;;;;;;;;
2024/01/06 00:03:02;;;;;;;6.6;4.1;;;;;;;;;;;;;
2024/01/06 00:05:27;;;;;;;5.4;3.9;;;;;;;;;;;;;
2024/01/06 00:07:52;;;;;;;5.2;3.8;;;;;;;;;;;;;
2024/01/06 00:10:17;;;;;;;5.1;3.9;;;;;;;;;;;;;
2024/01/06 00:12:42;;;;;;;5.1;3.6;;;;;;;;;;;;;
2024/01/06 00:15:08;;;;;;;6.2;4.4;;;;;;;;;;;;;
2024/01/06 00:17:33;;;;;;;7;4.7;;;;;;;;;;;;;
2024/01/06 00:20:00;;;;;;;5.8;4.1;;;;;;;;;;;;;
2024/01/06 00:22:23;;;;;;;6.2;4.2;;;;;;;;;;;;;
2024/01/06 00:24:48;;;;;;;6.3;4.3;;;;;;;;;;;;;
2024/01/06 00:27:13;;;;;;;6.3;4.2;;;;;;;;;;;;;
2024/01/06 00:29:38;;;;;;;5.9;4.4;;;;;;;;;;;;;
2024/01/06 00:32:03;;;;;;;7.9;4.5;;;;;;;;;;;;;
2024/01/06 00:34:28;;;;;;;6.8;4.4;;;;;;;;;;;;;
2024/01/06 00:36:53;;;;;;;6.1;4.5;;;;;;;;;;;;;
2024/01/06 00:39:18;;;;;;;3.9;3;;;;;;;;;;;;;
2024/01/06 00:41:44;;;;;;;4.4;2.8;;;;;;;;;;;;;
2024/01/06 00:44:09;;;;;;;3.4;2.3;;;;;;;;;;;;;
2024/01/06 00:46:34;;;;;;;2.9;1.8;;;;;;;;;;;;;
2024/01/06 00:48:59;;;;;;;1.6;1.4;;;;;;;;;;;;;
2024/01/06 00:51:24;;;;;;;1.1;1.1;;;;;;;;;;;;;
2024/01/06 00:53:49;;;;;;;1.6;1.4;;;;;;;;;;;;;
2024/01/06 00:56:14;;;;;;;1.2;1;;;;;;;;;;;;;
2024/01/06 00:58:40;;;;;;;1.2;1.1;;;;;;;;;;;;;
2024/01/06 01:01:05;;;;;;;1.4;1.1;;;;;;;;;;;;;
2024/01/06 01:03:30;;;;;;;1.2;1.1;;;;;;;;;;;;;
2024/01/06 01:05:55;;;;;;;1.3;1;;;;;;;;;;;;;
2024/01/06 01:08:20;;;;;;;1.6;1.3;;;;;;;;;;;;;
2024/01/06 01:10:45;;;;;;;1.3;1.2;;;;;;;;;;;;;
2024/01/06 01:13:10;;;;;;;1.7;1.2;;;;;;;;;;;;;
2024/01/06 01:15:35;;;;;;;1.5;1.2;;;;;;;;;;;;;
2024/01/06 01:18:00;;;;;;;1.4;1.1;;;;;;;;;;;;;
2024/01/06 01:20:25;;;;;;;1.1;1;;;;;;;;;;;;;
2024/01/06 01:22:50;;;;;;;1.1;1.1;;;;;;;;;;;;;
2024/01/06 01:25:16;;;;;;;1.9;1.2;;;;;;;;;;;;;
2024/01/06 01:27:41;;;;;;;0.9;0.9;;;;;;;;;;;;;
2024/01/06 01:30:06;;;;;;;0.8;0.8;;;;;;;;;;;;;
2024/01/06 01:32:31;;;;;;;0.8;0.8;;;;;;;;;;;;;
2024/01/06 01:34:56;;;;;;;0.9;0.9;;;;;;;;;;;;;
2024/01/06 01:37:21;;;;;;;1;0.9;;;;;;;;;;;;;
2024/01/06 01:39:46;;;;;;;0.9;0.9;;;;;;;;;;;;;
2024/01/06 01:42:11;;;;;;;1.2;1.1;;;;;;;;;;;;;
2024/01/06 01:44:37;;;;;;;0.8;0.8;;;;;;;;;;;;;
2024/01/06 01:47:02;;;;;;;1.3;0.8;;;;;;;;;;;;;
2024/01/06 01:49:27;;;;;;;1;0.8;;;;;;;;;;;;;
2024/01/06 01:51:52;;;;;;;1;0.8;;;;;;;;;;;;;
2024/01/06 01:54:17;;;;;;;0.7;0.7;;;;;;;;;;;;;
2024/01/06 01:56:42;;;;;;;1.4;0.7;;;;;;;;;;;;;
2024/01/06 01:59:07;;;;;;;0.8;0.8;;;;;;;;;;;;;
2024/01/06 02:01:33;;;;;;;0.6;0.6;;;;;;;;;;;;;
2024/01/06 02:03:58;;;;;;;0.7;0.7;;;;;;;;;;;;;
2024/01/06 02:06:23;;;;;;;1;0.7;;;;;;;;;;;;;
2024/01/06 02:08:48;;;;;;;0.6;0.6;;;;;;;;;;;;;
2024/01/06 02:11:13;;;;;;;1.3;0.7;;;;;;;;;;;;;
2024/01/06 02:13:38;;;;;;;0.5;0.5;;;;;;;;;;;;;
2024/01/06 02:16:03;;;;;;;0.6;0.6;;;;;;;;;;;;;
2024/01/06 02:18:28;;;;;;;0.8;0.5;;;;;;;;;;;;;
2024/01/06 02:20:53;;;;;;;0.4;0.4;;;;;;;;;;;;;
2024/01/06 02:23:18;;;;;;;1;0.5;;;;;;;;;;;;;
2024/01/06 02:25:43;;;;;;;1.2;0.7;;;;;;;;;;;;;
2024/01/06 02:28:08;;;;;;;0.8;0.8;;;;;;;;;;;;;
2024/01/06 02:30:34;;;;;;;1.3;1.1;;;;;;;;;;;;;
2024/01/06 02:32:59;;;;;;;2.1;1.8;;;;;;;;;;;;;
2024/01/06 02:35:24;;;;;;;2.7;1.8;;;;;;;;;;;;;
2024/01/06 02:37:49;;;;;;;2.8;2.6;;;;;;;;;;;;;
2024/01/06 02:40:14;;;;;;;2.8;2.5;;;;;;;;;;;;;
2024/01/06 02:42:39;;;;;;;3;2.4;;;;;;;;;;;;;
2024/01/06 02:45:04;;;;;;;3.5;2.5;;;;;;;;;;;;;
2024/01/06 02:47:29;;;;;;;3;2.5;;;;;;;;;;;;;
2024/01/06 02:49:56;;;;;;;4.9;2.6;;;;;;;;;;;;;
2024/01/06 02:52:19;;;;;;;2.8;2.4;;;;;;;;;;;;;
2024/01/06 02:54:45;;;;;;;3.9;2.8;;;;;;;;;;;;;
2024/01/06 02:57:13;;;;;;;3.7;2.8;;;;;;;;;;;;;
2024/01/06 02:59:35;;;;;;;4.2;2.9;;;;;;;;;;;;;
2024/01/06 03:02:00;;;;;;;4.4;2.6;;;;;;;;;;;;;
2024/01/06 03:04:25;;;;;;;3;2.7;;;;;;;;;;;;;
2024/01/06 03:06:53;;;;;;;3.6;2.6;;;;;;;;;;;;;
2024/01/06 03:09:17;;;;;;;3.8;2.9;;;;;;;;;;;;;
2024/01/06 03:11:40;;;;;;;3;2.4;;;;;;;;;;;;;
2024/01/06 03:14:06;;;;;;;3.2;2.4;;;;;;;;;;;;;
2024/01/06 03:16:31;;;;;;;3.4;2.6;;;;;;;;;;;;;
2024/01/06 03:18:56;;;;;;;2.8;2.5;;;;;;;;;;;;;
2024/01/06 03:21:21;;;;;;;2.6;2;;;;;;;;;;;;;
2024/01/06 03:23:49;;;;;;;3.4;2.2;;;;;;;;;;;;;
2024/01/06 03:26:11;;;;;;;2.6;2.2;;;;;;;;;;;;;
2024/01/06 03:28:36;;;;;;;2.9;2.3;;;;;;;;;;;;;
2024/01/06 03:31:02;;;;;;;3.2;2.6;;;;;;;;;;;;;
2024/01/06 03:33:26;;;;;;;3;2.6;;;;;;;;;;;;;
2024/01/06 03:35:51;;;;;;;3.4;2.8;;;;;;;;;;;;;
2024/01/06 03:38:17;;;;;;;3.1;2.5;;;;;;;;;;;;;
2024/01/06 03:40:42;;;;;;;2.6;2.4;;;;;;;;;;;;;
2024/01/06 03:43:07;;;;;;;2.1;1.9;;;;;;;;;;;;;
2024/01/06 03:45:32;;;;;;;2.5;2.3;;;;;;;;;;;;;
2024/01/06 03:47:57;;;;;;;3;2.5;;;;;;;;;;;;;
2024/01/06 03:50:22;;;;;;;2.6;2.2;;;;;;;;;;;;;
2024/01/06 03:52:48;;;;;;;1.5;1.4;;;;;;;;;;;;;
2024/01/06 03:55:13;;;;;;;1.4;1.3;;;;;;;;;;;;;
2024/01/06 03:57:38;;;;;;;1.6;1.5;;;;;;;;;;;;;
2024/01/06 04:00:03;;;;;;;1.7;1.6;;;;;;;;;;;;;
2024/01/06 04:02:30;;;;;;;1.3;1.2;;;;;;;3.29;94.53516;925.2115;;;;
2024/01/06 04:04:56;;;;;;;1.2;1.2;;;;;;;3.26;94.6748;925.1978;;;;
2024/01/06 04:07:21;;;;;;;1.2;1.1;;;;;;;3.29;94.51465;925.2729;;;;
2024/01/06 04:09:46;;;;;;;1.1;1;;;;;;;3.34;94.24609;925.302;;;;
2024/01/06 04:12:11;;;;;;;1.7;1.3;;;;;;;3.31;94.21582;925.2654;;;;
2024/01/06 04:14:36;;;;;;;1.3;1.2;;;;;;;3.3;94.49414;925.2645;;;;
2024/01/06 04:17:02;;;;;;;0.9;0.9;;;;;;;3.34;94.11133;925.3493;;;;
2024/01/06 04:19:29;;;;;;;1.2;1.1;;;;;;;3.41;93.83301;925.4246;;;;
2024/01/06 04:21:52;;;;;;;1.1;1;;;;;;;3.37;93.81445;925.4614;;;;
2024/01/06 04:24:17;;;;;;;1.1;1;;;;;;;3.38;93.75781;925.5142;;;;
2024/01/06 04:26:44;;;;;;;1.5;1.3;;;;;;;3.46;93.51953;925.4985;;;;
2024/01/06 04:29:08;;;;;;;1.2;1.1;;;;;;;3.41;93.51855;925.5245;;;;
2024/01/06 04:31:33;;;;;;;1.1;1;;;;;;;3.44;93.51367;925.5225;;;;
2024/01/06 04:33:57;;;;;;;1.1;1.1;;;;;;;3.41;93.58398;925.4772;;;;
2024/01/06 04:36:22;;;;;;;1.1;0.9;;;;;;;3.42;93.64453;925.5002;;;;
2024/01/06 04:38:48;;;;;;;1.3;1.2;;;;;;;3.46;93.44141;925.4985;;;;
2024/01/06 04:41:13;;;;;;;1.5;1.4;;;;;;;3.42;93.4668;925.4814;;;;
2024/01/06 04:43:38;;;;;;;1.5;1.4;;;;;;;3.42;93.54297;925.4939;;;;
2024/01/06 04:46:03;;;;;;;1.2;1.1;;;;;;;3.44;93.36719;925.4281;;;;
2024/01/06 04:48:28;;;;;;;1;0.9;;;;;;;3.53;92.85938;925.3823;;;;
2024/01/06 04:50:54;;;;;;;0.7;0.6;;;;;;;3.37;93.37598;925.5109;;;;
2024/01/06 04:53:19;;;;;;;0.7;0.7;;;;;;;3.31;93.84473;925.5848;;;;
2024/01/06 04:55:45;;;;;;;0.6;0.6;;;;;;;3.27;94.15137;925.677;;;;
2024/01/06 04:58:10;;;;;;;0.4;0.4;;;;;;;3.31;93.98145;925.6376;;;;
2024/01/06 05:00:36;;;;;;;0.6;0.6;;;;;;;3.28;94.1875;925.6992;;;;
2024/01/06 05:03:00;;;;;;;0.4;0.4;;;;;;;3.26;94.31738;925.6981;;;;
2024/01/06 05:05:25;;;;;;;0.5;0.5;;;;;;;3.28;94.35352;925.6755;;;;
2024/01/06 05:07:50;;;;;;;0.8;0.8;;;;;;;3.22;94.55469;925.7336;;;;
2024/01/06 05:10:15;;;;;;;6;4.6;;;;;;;3.2;94.71875;925.7472;;;;
2024/01/06 05:12:40;;;;;;;6.6;4.9;;;;;;;3.25;94.75195;925.7656;;;;
2024/01/06 05:15:05;;;;;;;3.8;3.1;;;;;;;3.27;94.90332;925.8177;;;;
2024/01/06 05:17:31;;;;;;;3.5;2.6;;;;;;;3.32;94.5;925.876;;;;
2024/01/06 05:19:56;;;;;;;2.8;2.6;;;;;;;3.4;94.30273;925.8765;;;;
2024/01/06 05:22:21;;;;;;;2.4;2.1;;;;;;;3.44;93.96289;925.8592;;;;
2024/01/06 05:24:46;;;;;;;1.6;1.5;;;;;;;3.47;93.78223;925.9008;;;;
2024/01/06 05:27:11;;;;;;;2.2;2;;;;;;;3.44;93.80566;925.9324;;;;
2024/01/06 05:29:36;;;;;;;2.9;2.7;;;;;;;3.44;93.875;925.9387;;;;
2024/01/06 05:32:01;;;;;;;2.7;2.5;;;;;;;3.36;94.40527;925.993;;;;
2024/01/06 05:34:27;;;;;;;2.6;2.4;;;;;;;3.37;94.15137;926.0145;;;;
2024/01/06 05:36:52;;;;;;;1.9;1.7;;;;;;;3.36;94.16016;926.0639;;;;
2024/01/06 05:39:17;;;;;;;2.1;1.9;;;;;;;3.45;94.05469;926.0223;;;;
2024/01/06 05:41:42;;;;;;;3.7;3.4;;;;;;;3.45;93.7627;926.123;;;;
2024/01/06 05:44:07;;;;;;;4.7;4;;;;;;;3.42;94.07129;926.1839;;;;
2024/01/06 05:46:32;;;;;;;4.8;4.1;;;;;;;3.42;94.19629;926.2249;;;;
2024/01/06 05:50:18;;;;;;;4.6;3.8;;;;;;;3.38;94.52148;926.2065;;;;
2024/01/06 05:52:43;;;;;;;6.3;4.5;;;;;;;3.37;94.3418;926.2403;;;;
2024/01/06 05:55:09;;;;;;;6.8;5.3;;;;;;;3.29;94.78418;926.2271;;;;
2024/01/06 05:57:33;;;;;;;7.5;6;;;;;;;3.26;94.92188;926.2581;;;;
2024/01/06 05:59:58;;;;;;;7.1;5.7;;;;;;;3.31;94.98828;926.2203;;;;
2024/01/06 06:02:23;;;;;;;6.8;5;;;;;;;3.33;95.0166;926.2946;;;;
2024/01/06 06:04:48;;;;;;;6.2;4.5;;;;;;;3.35;94.96484;926.3383;;;;
2024/01/06 06:07:14;;;;;;;4.8;4.3;;;;;;;3.35;94.89941;926.4044;;;;
2024/01/06 06:09:40;;;;;;;4.9;4.1;;;;;;;3.32;95.2168;926.414;;;;
2024/01/06 06:12:03;;;;;;;4.7;4.1;;;;;;;3.33;95.04102;926.3647;;;;
2024/01/06 06:14:29;;;;;;;5.8;4;;;;;;;3.37;94.86914;926.407;;;;
2024/01/06 06:16:54;;;;;;;6.7;5.2;;;;;;;3.35;94.84082;926.4444;;;;
2024/01/06 06:19:19;;;;;;;5.2;4.3;;;;;;;3.35;94.69727;926.3965;;;;
2024/01/06 06:21:44;;;;;;;3;2.8;;;;;;;3.38;94.15332;926.4387;;;;
2024/01/06 06:24:10;;;;;;;2.4;2.2;;;;;;;3.36;94.32617;926.447;;;;
2024/01/06 06:26:34;;;;;;;2.6;2.4;;;;;;;3.29;94.86035;926.4938;;;;
2024/01/06 06:29:00;;;;;;;2.9;2.7;;;;;;;3.27;94.91504;926.6208;;;;
2024/01/06 06:31:24;;;;;;;3.2;2.9;;;;;;;3.24;95.1875;926.6297;;;;
2024/01/06 06:33:50;;;;;;;3.9;3.2;;;;;;;3.29;94.91699;926.6431;;;;
2024/01/06 06:36:15;;;;;;;4.6;3.2;;;;;;;3.33;94.72656;926.67;;;;
2024/01/06 06:38:40;;;;;;;3.4;3.1;;;;;;;3.28;94.78223;926.6769;;;;
2024/01/06 06:41:05;;;;;;;4.8;3.6;;;;;;;3.28;94.9375;926.6948;;;;
2024/01/06 06:43:30;;;;;;;5.5;5;;;;;;;3.36;94.74219;926.7403;;;;
2024/01/06 06:45:56;;;;;;;8.9;7.9;;;;;;;3.37;94.38672;926.7484;;;;
2024/01/06 06:48:20;;;;;;;8.4;7.5;;;;;;;3.37;94.22949;926.7902;;;;
2024/01/06 06:50:45;;;;;;;7.4;6.5;;;;;;;3.32;94.39746;926.7963;;;;
2024/01/06 06:53:10;;;;;;;6.7;6;;;;;;;3.27;94.74609;926.7971;;;;
2024/01/06 06:55:37;;;;;;;5.8;4.8;;;;;;;3.22;95.07129;926.8143;;;;
2024/01/06 06:58:01;;;;;;;5.8;4.5;;;;;;;3.18;95.35449;926.8031;;;;
2024/01/06 07:00:26;;;;;;;4.8;3.9;;;;;;;3.23;95.23047;926.7625;;;;
2024/01/06 07:02:51;;;;;;;6.4;4.4;;;;;;;3.18;95.28711;926.8723;;;;
2024/01/06 07:05:17;;;;;;;6.1;4.6;;;;;;;3.19;95.30078;926.8465;;;;
2024/01/06 07:07:43;;;;;;;5.6;4.8;;;;;;;3.19;95.14355;926.8951;;;;
2024/01/06 07:10:06;;;;;;;7.1;5.4;;;;;;;3.14;95.45703;926.829;;;;
2024/01/06 07:12:31;;;;;;;5.9;5.2;;;;;;;3.14;95.5918;926.9556;;;;
2024/01/06 07:14:58;;;;;;;6.2;5.2;;;;;;;3.14;95.75098;926.9817;;;;
2024/01/06 07:17:22;;;;;;;7.2;5.7;;;;;;;3.12;95.86816;926.9764;;;;
2024/01/06 07:19:48;;;;;;;6.4;5.2;;;;;;;3.13;95.88086;927.0923;;;;
2024/01/06 07:22:12;;;;;;;7;5.8;;;;;;;3.12;95.8457;927.0914;;;;
2024/01/06 07:24:37;;;;;;;7.6;5.9;;;;;;;3.18;95.43359;927.0634;;;;
2024/01/06 07:27:03;;;;;;;8.5;5.7;;;;;;;3.23;95.17383;927.1724;;;;
2024/01/06 07:29:27;;;;;;;6.5;5.7;;;;;;;3.26;95.14844;927.1533;;;;
2024/01/06 07:31:55;;;;;;;10.8;8.1;;;;;;;3.28;94.81348;927.2377;;;;
2024/01/06 07:34:18;;;;;;;5.9;5.3;;;;;;;3.32;94.60156;927.2117;;;;
2024/01/06 07:36:42;;;;;;;6.4;5.7;;;;;;;3.31;94.69824;927.2288;;;;
2024/01/06 07:39:07;;;;;;;7.2;5.9;;;;;;;3.33;94.71387;927.2355;;;;
2024/01/06 07:41:33;;;;;;;6.7;6;;;;;;;3.34;94.58105;927.2434;;;;
2024/01/06 07:43:58;;;;;;;5.2;4.7;;;;;;;3.36;94.50586;927.2683;;;;
2024/01/06 07:46:23;;;;;;;5.3;4.6;;;;;;;3.4;94.56152;927.2043;;;;
2024/01/06 07:48:48;;;;;;;6.6;5.6;;;;;;;3.46;94.14844;927.2484;;;;
2024/01/06 07:51:13;;;;;;;6.9;5.2;;;;;;;3.42;94.31836;927.283;;;;
2024/01/06 07:53:38;;;;;;;5.3;4.1;;;;;;;3.42;94.45313;927.2208;;;;
2024/01/06 07:56:03;;;;;;;3.9;3.2;;;;;;;3.45;94.28125;927.2836;;;;
2024/01/06 07:58:29;;;;;;;3.5;3.1;;;;;;;3.42;93.91602;927.3326;;;;
2024/01/06 08:00:54;;;;;;;2.7;2.5;;;;;;;3.35;94.47266;927.2981;;;;
2024/01/06 08:03:19;;;;;;;2.5;2.3;;;;;;;3.39;94.3457;927.3097;;;;
2024/01/06 08:05:44;;;;;;;2.8;2.3;;;;;;;3.38;94.45605;927.3772;;;;
2024/01/06 08:08:09;;;;;;;2.3;2.1;;;;;;;3.33;94.78125;927.4045;;;;
2024/01/06 08:10:34;;;;;;;1.9;1.8;;;;;;;3.37;94.66797;927.4595;;;;
2024/01/06 08:13:00;;;;;;;2.5;1.9;;;;;;;3.37;94.54395;927.4014;;;;
2024/01/06 08:15:25;;;;;;;2;1.8;;;;;;;3.38;94.4541;927.4353;;;;
2024/01/06 08:17:50;;;;;;;2.2;1.7;;;;;;;3.42;94.45313;927.5159;;;;
2024/01/06 08:20:15;;;;;;;1.8;1.7;;;;;;;3.49;93.90723;927.4597;;;;
2024/01/06 08:22:40;;;;;;;1.9;1.8;;;;;;;3.43;94.14258;927.5697;;;;
2024/01/06 08:25:06;;;;;;;2;1.8;;;;;;;3.41;94.70703;927.5605;;;;
2024/01/06 08:27:30;;;;;;;2.4;1.9;;;;;;;3.35;94.875;927.4703;;;;
2024/01/06 08:29:56;;;;;;;2.3;2.1;;;;;;;3.3;95.12305;927.6063;;;;
2024/01/06 08:32:21;;;;;;;2.4;2.1;;;;;;;3.31;95.04883;927.6482;;;;
2024/01/06 08:34:46;;;;;;;3.3;2;;;;;;;3.36;94.91211;927.6688;;;;
2024/01/06 08:37:11;;;;;;;2.4;2.2;;;;;;;3.28;95.18457;927.6664;;;;
2024/01/06 08:39:36;;;;;;;2.1;1.9;;;;;;;3.29;95.10059;927.6965;;;;
2024/01/06 08:42:01;;;;;;;2.3;2.1;;;;;;;3.38;94.77051;927.6959;;;;
2024/01/06 08:44:26;;;;;;;2.4;2.2;;;;;;;3.45;94.61621;927.7595;;;;
2024/01/06 08:46:52;;;;;;;2.9;2.5;;;;;;;3.49;94.35645;927.806;;;;
2024/01/06 08:49:17;;;;;;;2.8;2.3;;;;;;;3.57;94.31836;927.7949;;;;
2024/01/06 08:51:41;;;;;;;2.5;2.3;;;;;;;3.55;94.60645;927.8117;;;;
2024/01/06 08:54:07;;;;;;;2.4;2.2;;;;;;;3.57;94.36328;927.8098;;;;
2024/01/06 08:56:32;;;;;;;3.4;2.9;;;;;;;3.63;94.0498;927.8018;;;;
2024/01/06 08:58:57;;;;;;;4.6;3.7;;;;;;;3.56;94.21387;927.8127;;;;
2024/01/06 09:01:22;;;;;;;5.3;4.2;;;;;;;3.57;94.34082;927.8452;;;;
2024/01/06 09:03:47;;;;;;;6.1;4.6;;;;;;;3.57;94.46289;927.8506;;;;
2024/01/06 09:06:13;;;;;;;6.4;5.1;;;;;;;3.57;94.33008;927.8892;;;;
2024/01/06 09:08:38;;;;;;;6.5;5.6;;;;;;;3.51;94.76465;927.8992;;;;
2024/01/06 09:11:03;;;;;;;9.4;7.1;;;;;;;3.55;94.84277;927.9299;;;;
2024/01/06 09:13:32;;;;;;;9.2;7.4;;;;;;;3.57;94.96777;927.8869;;;;
2024/01/06 09:15:53;;;;;;;8.6;7;;;;;;;3.56;95.05762;927.9686;;;;
2024/01/06 09:18:18;;;;;;;8.8;7.3;;;;;;;3.59;94.97168;927.9801;;;;
2024/01/06 09:20:43;;;;;;;8.7;7;;;;;;;3.6;94.87695;928.004;;;;
2024/01/06 09:23:10;;;;;;;8.1;6.5;;;;;;;3.68;94.56738;928.0363;;;;
2024/01/06 09:25:33;;;;;;;6.5;5.7;;;;;;;3.7;94.34668;928.0737;;;;
2024/01/06 09:27:59;;;;;;;6.5;5.6;;;;;;;3.71;94.25879;928.1526;;;;
2024/01/06 09:30:24;;;;;;;7.4;6.4;;;;;;;3.74;94.19727;928.1705;;;;
2024/01/06 09:32:49;;;;;;;6.3;5.2;;;;;;;3.64;94.625;928.1522;;;;
2024/01/06 09:35:14;;;;;;;4.9;4.1;;;;;;;3.68;94.63477;928.0726;;;;
2024/01/06 09:37:40;;;;;;;5;4.2;;;;;;;3.62;95.09473;928.0345;;;;
2024/01/06 09:40:04;;;;;;;5.1;4.2;;;;;;;3.69;94.92676;927.9814;;;;
2024/01/06 09:42:29;;;;;;;6.6;5.9;;;;;;;3.71;95.20215;927.9819;;;;
2024/01/06 09:44:54;;;;;;;4.8;4.3;;;;;;;3.69;94.85059;927.995;;;;
2024/01/06 09:47:19;;;;;;;4;3.6;;;;;;;3.69;94.95117;927.998;;;;
2024/01/06 09:49:44;;;;;;;6.2;5.2;;;;;;;3.68;95.03906;928.0814;;;;
2024/01/06 09:52:11;;;;;;;5.9;4.5;;;;;;;3.71;95.12402;928.084;;;;
2024/01/06 09:54:35;;;;;;;4.8;3.7;;;;;;;3.71;95.03418;928.0668;;;;
2024/01/06 09:56:59;;;;;;;5;4;;;;;;;3.75;95.07617;927.9353;;;;
2024/01/06 09:59:25;;;;;;;4;3.5;;;;;;;3.77;94.94727;927.9885;;;;
2024/01/06 10:01:50;;;;;;;3.9;3.4;;;;;;;3.76;94.65234;928.015;;;;
2024/01/06 10:04:15;;;;;;;3.1;2.8;;;;;;;3.78;94.8252;928.0004;;;;
2024/01/06 10:06:40;;;;;;;2.9;2.6;;;;;;;3.77;94.77832;927.9963;;;;
2024/01/06 10:09:06;;;;;;;2.7;2.3;;;;;;;3.77;94.8252;927.9381;;;;
2024/01/06 10:11:30;;;;;;;2.7;2.4;;;;;;;3.76;94.79883;927.9725;;;;
2024/01/06 10:13:55;;;;;;;5.4;4.4;;;;;;;3.73;95.13965;927.842;;;;
2024/01/06 10:16:21;;;;;;;6;4.4;;;;;;;3.71;94.82031;927.8716;;;;
2024/01/06 10:18:46;;;;;;;4.3;3.7;;;;;;;3.72;94.29688;927.8569;;;;
2024/01/06 10:21:11;;;;;;;3.8;3.2;;;;;;;3.78;94.21875;927.8116;;;;
2024/01/06 10:23:36;;;;;;;4.4;3.4;;;;;;;3.74;94.47852;927.8289;;;;
2024/01/06 10:26:01;;;;;;;4.6;3.5;;;;;;;3.7;94.61816;927.822;;;;
2024/01/06 10:28:26;;;;;;;3.8;3.4;;;;;;;3.7;94.6748;927.8652;;;;
2024/01/06 10:30:52;;;;;;;4.3;3.4;;;;;;;3.74;94.50098;927.8273;;;;
2024/01/06 10:33:16;;;;;;;4;3;;;;;;;3.76;94.29297;927.8844;;;;
2024/01/06 10:35:41;;;;;;;3.9;3.4;;;;;;;3.75;94.29102;927.7827;;;;
2024/01/06 10:38:07;;;;;;;3.3;3;;;;;;;3.74;94.44434;927.8273;;;;
2024/01/06 10:40:32;;;;;;;3.4;2.8;;;;;;;3.7;94.69727;927.8156;;;;
2024/01/06 10:42:57;;;;;;;4;3.2;;;;;;;3.68;95.07324;927.8081;;;;
2024/01/06 10:45:22;;;;;;;3.6;3.2;;;;;;;3.67;95.52051;927.8212;;;;
2024/01/06 10:47:47;;;;;;;4.2;3.4;;;;;;;3.66;95.57422;927.7881;;;;
2024/01/06 10:50:14;;;;;;;4.2;3.2;;;;;;;3.65;95.70703;927.8368;;;;
2024/01/06 10:52:38;;;;;;;3.7;3.4;;;;;;;3.66;95.67383;927.8038;;;;
2024/01/06 10:55:04;;;;;;;4.4;3.3;;;;;;;3.74;95.41113;927.7761;;;;
2024/01/06 10:57:28;;;;;;;4.4;3.6;;;;;;;3.76;95.48438;927.8167;;;;
2024/01/06 10:59:53;;;;;;;4.5;3.8;;;;;;;3.68;95.72461;927.8452;;;;
2024/01/06 11:02:18;;;;;;;4.5;3.5;;;;;;;3.64;95.5127;927.8633;;;;
2024/01/06 11:04:43;;;;;;;12.1;8.9;;;;;;;3.66;95.61719;927.8117;;;;
2024/01/06 11:07:08;;;;;;;14.4;11.3;;;;;;;3.67;95.68848;927.7615;;;;
2024/01/06 11:09:33;;;;;;;7;5.3;;;;;;;3.64;95.46973;927.7839;;;;
2024/01/06 11:11:59;;;;;;;6.8;5.3;;;;;;;3.6;95.48145;927.7136;;;;
2024/01/06 11:14:24;;;;;;;4.7;3.9;;;;;;;3.62;95.54199;927.6347;;;;
2024/01/06 11:16:49;;;;;;;6.4;4.8;;;;;;;3.64;95.47852;927.698;;;;
2024/01/06 11:19:14;;;;;;;8.1;5.9;;;;;;;3.67;95.23926;927.6609;;;;
2024/01/06 11:21:39;;;;;;;15;11.4;;;;;;;3.66;95.16992;927.6961;;;;
2024/01/06 11:24:04;;;;;;;15.2;10.6;;;;;;;3.66;95.0332;927.6456;;;;
2024/01/06 11:26:30;;;;;;;12.5;9.3;;;;;;;3.68;94.96094;927.5603;;;;
2024/01/06 11:28:57;;;;;;;12.7;9.4;;;;;;;3.7;95;927.6055;;;;
2024/01/06 11:31:19;;;;;;;4.3;3.8;;;;;;;3.64;94.77051;927.5414;;;;
2024/01/06 11:33:47;;;;;;;9;6.5;;;;;;;3.68;94.55566;927.5335;;;;
2024/01/06 11:36:10;;;;;;;9.8;6.8;;;;;;;3.68;94.58984;927.4956;;;;
2024/01/06 11:38:35;;;;;;;3;2.4;;;;;;;3.64;94.69434;927.4651;;;;
2024/01/06 11:41:00;;;;;;;2.1;1.4;;;;;;;3.59;94.94043;927.4261;;;;
2024/01/06 11:43:25;;;;;;;1.5;1.4;;;;;;;3.63;94.7373;927.4186;;;;
2024/01/06 11:45:51;;;;;;;1.7;1.4;;;;;;;3.67;94.59863;927.4105;;;;
2024/01/06 11:48:16;;;;;;;1.6;1.4;;;;;;;3.59;94.65723;927.4056;;;;
2024/01/06 11:50:41;;;;;;;1.5;1.4;;;;;;;3.59;94.7041;927.4514;;;;
2024/01/06 11:53:06;;;;;;;3.6;2.1;;;;;;;3.67;94.63281;927.4553;;;;
2024/01/06 11:55:31;;;;;;;2.4;2.2;;;;;;;3.64;94.48047;927.4289;;;;
2024/01/06 11:57:57;;;;;;;3.2;1.6;;;;;;;3.61;94.47266;927.2969;;;;
2024/01/06 12:00:21;;;;;;;1.9;1.4;;;;;;;3.55;94.62891;927.3617;;;;
2024/01/06 12:02:46;;;;;;;2;1.5;;;;;;;3.56;94.67383;927.3964;;;;
2024/01/06 12:05:12;;;;;;;1.7;1.6;;;;;;;3.57;94.51855;927.3784;;;;
2024/01/06 12:07:37;;;;;;;2.8;1.7;;;;;;;3.48;94.72559;927.3274;;;;
2024/01/06 12:10:02;;;;;;;2.1;1.8;;;;;;;3.44;95.08789;927.3173;;;;
2024/01/06 12:12:27;;;;;;;2.7;1.4;;;;;;;3.48;95.1748;927.2856;;;;
2024/01/06 12:14:52;;;;;;;1.5;1.3;;;;;;;3.43;95.33105;927.2729;;;;
2024/01/06 12:17:17;;;;;;;2;1.4;;;;;;;3.5;95.00977;927.305;;;;
2024/01/06 12:19:43;;;;;;;1.8;1.4;;;;;;;3.58;94.44434;927.2883;;;;
2024/01/06 12:22:07;;;;;;;2.8;1.4;;;;;;;3.57;94.71191;927.3109;;;;
2024/01/06 12:24:32;;;;;;;1.6;1.5;;;;;;;3.62;94.35352;927.2932;;;;
2024/01/06 12:26:58;;;;;;;1.6;1.5;;;;;;;3.58;94.67969;927.3127;;;;
2024/01/06 12:29:23;;;;;;;2.9;1.5;;;;;;;3.57;94.90039;927.3234;;;;
2024/01/06 12:31:48;;;;;;;2.2;1.6;;;;;;;3.53;94.74707;927.3747;;;;
2024/01/06 12:34:13;;;;;;;1.9;1.7;;;;;;;3.54;94.81836;927.3411;;;;
2024/01/06 12:36:38;;;;;;;1.4;1.3;;;;;;;3.59;94.7041;927.3214;;;;
2024/01/06 12:39:04;;;;;;;2.1;1.6;;;;;;;3.53;94.9043;927.2983;;;;
2024/01/06 12:41:29;;;;;;;2.1;1.5;;;;;;;3.49;94.93164;927.308;;;;
2024/01/06 12:43:54;;;;;;;2.1;1.9;;;;;;;3.49;95.10938;927.2953;;;;
2024/01/06 12:46:19;;;;;;;2.3;1.8;;;;;;;3.54;94.87402;927.3333;;;;
2024/01/06 12:48:44;;;;;;;2;1.8;;;;;;;3.53;94.49902;927.3346;;;;
2024/01/06 12:51:09;;;;;;;3.3;2.4;;;;;;;3.5;94.88672;927.3546;;;;
2024/01/06 12:53:34;;;;;;;3.5;2.5;;;;;;;3.44;95.40039;927.3432;;;;
2024/01/06 12:55:59;;;;;;;2.1;1.9;;;;;;;3.45;95.11035;927.3284;;;;
2024/01/06 12:58:25;;;;;;;3.4;2.3;;;;;;;3.47;95.04883;927.2839;;;;
2024/01/06 13:00:49;;;;;;;2.2;2;;;;;;;3.47;95.09375;927.3445;;;;
2024/01/06 13:03:15;;;;;;;4.9;3.7;;;;;;;3.46;95.22656;927.2547;;;;
2024/01/06 13:05:39;;;;;;;3.1;2.8;;;;;;;3.55;94.68555;927.305;;;;
2024/01/06 13:08:05;;;;;;;2.3;2.1;;;;;;;3.47;95.07129;927.2273;;;;
2024/01/06 13:10:30;;;;;;;2.2;1.9;;;;;;;3.42;95.03711;927.2941;;;;
2024/01/06 13:12:55;;;;;;;2.7;2.3;;;;;;;3.53;94.6123;927.3416;;;;
2024/01/06 13:15:21;;;;;;;2.9;2.5;;;;;;;3.43;95.0498;927.288;;;;
2024/01/06 13:17:46;;;;;;;2.4;1.8;;;;;;;3.43;95.07227;927.358;;;;
2024/01/06 13:20:10;;;;;;;1.8;1.7;;;;;;;3.41;95.06836;927.3836;;;;
2024/01/06 13:22:35;;;;;;;2.6;2.2;;;;;;;3.42;95.17188;927.4152;;;;
2024/01/06 13:25:01;;;;;;;2.7;2.5;;;;;;;3.38;95.33008;927.4362;;;;
2024/01/06 13:27:27;;;;;;;2.6;2.4;;;;;;;3.43;95.11719;927.4241;;;;
2024/01/06 13:29:51;;;;;;;2.8;2;;;;;;;3.42;95.03906;927.5207;;;;
2024/01/06 13:32:17;;;;;;;3.3;2.5;;;;;;;3.38;95.15039;927.4016;;;;
2024/01/06 13:34:41;;;;;;;4.8;3;;;;;;;3.42;94.76953;927.5482;;;;
2024/01/06 13:37:07;;;;;;;4;3;;;;;;;3.43;94.80469;927.5098;;;;
2024/01/06 13:39:31;;;;;;;5.9;4.2;;;;;;;3.33;95.20996;927.5966;;;;
2024/01/06 13:41:56;;;;;;;3.9;3.1;;;;;;;3.26;95.5752;927.5834;;;;
2024/01/06 13:44:22;;;;;;;2.3;2.1;;;;;;;3.28;95.30957;927.5547;;;;
2024/01/06 13:46:48;;;;;;;2.2;1.8;;;;;;;3.35;95.06738;927.6537;;;;
2024/01/06 13:49:12;;;;;;;2;1.8;;;;;;;3.35;94.96484;927.6347;;;;
2024/01/06 13:51:37;;;;;;;2.4;1.7;;;;;;;3.35;94.91992;927.6607;;;;
2024/01/06 13:54:02;;;;;;;1.9;1.7;;;;;;;3.3;95.28027;927.7076;;;;
2024/01/06 13:56:27;;;;;;;3;2;;;;;;;3.34;94.97559;927.7109;;;;
2024/01/06 13:58:52;;;;;;;2.2;1.9;;;;;;;3.23;95.30859;927.6135;;;;
2024/01/06 14:01:17;;;;;;;2.7;2;;;;;;;3.23;95.41016;927.6898;;;;
2024/01/06 14:03:42;;;;;;;2.8;2.1;;;;;;;3.25;95.49219;927.7231;;;;
2024/01/06 14:06:08;;;;;;;2.1;1.5;;;;;;;3.34;94.86328;927.7156;;;;
2024/01/06 14:08:32;;;;;;;2.9;1.9;;;;;;;3.3;95.04395;927.7022;;;;
2024/01/06 14:10:57;;;;;;;1.7;1.6;;;;;;;3.28;95.20703;927.6781;;;;
2024/01/06 14:13:22;;;;;;;2.8;1.8;;;;;;;3.21;95.41699;927.7249;;;;
2024/01/06 14:15:48;;;;;;;2.5;1.8;;;;;;;3.18;95.74805;927.7453;;;;
2024/01/06 14:18:15;;;;;;;2.2;1.7;;;;;;;3.17;95.76855;927.7505;;;;
2024/01/06 14:20:40;;;;;;;2.2;1.9;;;;;;;3.19;95.68262;927.754;;;;
2024/01/06 14:23:03;;;;;;;1.9;1.7;;;;;;;3.2;95.60547;927.7947;;;;
2024/01/06 14:25:28;;;;;;;2.9;1.8;;;;;;;3.22;95.50879;927.7918;;;;
2024/01/06 14:27:53;;;;;;;2;1.7;;;;;;;3.25;95.33496;927.8184;;;;
2024/01/06 14:30:19;;;;;;;2.3;1.8;;;;;;;3.23;95.57617;927.8628;;;;
2024/01/06 14:32:44;;;;;;;2.3;1.6;;;;;;;3.23;95.46582;927.7946;;;;
2024/01/06 14:35:11;;;;;;;2.7;1.8;;;;;;;3.17;95.64258;927.848;;;;
2024/01/06 14:37:36;;;;;;;2.7;2;;;;;;;3.16;95.74316;927.8369;;;;
2024/01/06 14:40:04;;;;;;;2.2;2;;;;;;;3.13;95.92383;927.8597;;;;
2024/01/06 14:42:24;;;;;;;2.4;2;;;;;;;3.12;96.10352;927.8651;;;;
2024/01/06 14:44:49;;;;;;;3.4;2;;;;;;;3.17;95.7793;927.7883;;;;
2024/01/06 14:47:14;;;;;;;3.6;1.8;;;;;;;3.12;96.11523;927.8675;;;;
2024/01/06 14:49:39;;;;;;;2;1.9;;;;;;;3.09;96.24316;927.8409;;;;
2024/01/06 14:52:10;;;;;;;2.2;2;;;;;;;3.08;96.2959;927.935;;;;
2024/01/06 14:54:34;;;;;;;2;1.8;;;;;;;3.14;96.11914;927.9158;;;;
2024/01/06 14:57:00;;;;;;;2.5;1.9;;;;;;;3.13;96.18457;927.9644;;;;
2024/01/06 14:59:24;;;;;;;2.4;2.2;;;;;;;3.13;96.07031;927.9761;;;;
2024/01/06 15:01:49;;;;;;;3;2.7;;;;;;;3.17;95.90234;927.9897;;;;
2024/01/06 15:04:16;;;;;;;3.5;2.6;;;;;;;3.13;95.9707;927.9738;;;;
2024/01/06 15:06:39;;;;;;;2.6;2.2;;;;;;;3.15;95.95313;927.9341;;;;
2024/01/06 15:09:04;;;;;;;2.3;2.1;;;;;;;3.12;96.09277;927.9334;;;;
2024/01/06 15:11:30;;;;;;;2.4;2.1;;;;;;;3.12;95.98047;928.0892;;;;
2024/01/06 15:13:55;;;;;;;2.5;2.3;;;;;;;3.07;96.06934;928.0851;;;;
2024/01/06 15:16:20;;;;;;;2.7;2.3;;;;;;;3.05;96.04297;928.1154;;;;
2024/01/06 15:18:45;;;;;;;3.3;2.6;;;;;;;3.04;96.18848;928.1372;;;;
2024/01/06 15:21:10;;;;;;;2.6;2.4;;;;;;;3.05;96.24609;928.1351;;;;
2024/01/06 15:23:35;;;;;;;3.2;2.8;;;;;;;3.07;96.16992;928.1731;;;;
2024/01/06 15:26:03;;;;;;;3.2;2.7;;;;;;;3.05;96.2666;928.1412;;;;
2024/01/06 15:28:25;;;;;;;4;3.1;;;;;;;3.04;96.33203;928.1819;;;;
2024/01/06 15:30:50;;;;;;;3.9;2.6;;;;;;;3.17;95.58887;928.1816;;;;
2024/01/06 15:33:16;;;;;;;3.3;2.5;;;;;;;3.09;95.92969;928.19;;;;
2024/01/06 15:35:41;;;;;;;3.9;2.4;;;;;;;3.09;95.95215;928.157;;;;
2024/01/06 15:38:06;;;;;;;3.1;2.4;;;;;;;3.03;96.09473;928.1842;;;;